CheckWX is a tool to help pilots better visualize weather data.  It is not intended as a substitute for an official pre-flight weather briefing.

05:03:26 UTC

LPPT TAF
Lisbon Portela Airport
Lisbon, Portugal
TAF LPPT 222300Z 2300/2406 03007KT CAVOK BECMG 2310/2312 09012KT BECMG 2318/2320 02005KT

Mar-23@
00:00 UTC

Mar-23 @ 00:00 UTC

Mar-23@
10:00 UTC

Mar-23 @ 10:00 UTC

TAF LPPT 222300Z 2300/2406 03007KT CAVOK
Wind
  • 030° at 7 KTS
Conditions
No significant weather
Cloud Levels
  • No significant clouds

Mar-23@
10:00 UTC

Mar-23 @ 10:00 UTC

Mar-23@
18:00 UTC

Mar-23 @ 18:00 UTC

BECMG 2310/2312 09012KT

Becoming

Becoming Conditions expected by Sat, Mar 23, 2019 @ 12:00 UTC

Wind
  • 090° at 12 KTS
Conditions
No significant weather
Cloud Levels
  • No significant clouds

Mar-23@
18:00 UTC

Mar-23 @ 18:00 UTC

Mar-24@
06:00 UTC

Mar-24 @ 06:00 UTC

BECMG 2318/2320 02005KT

Becoming

Becoming Conditions expected by Sat, Mar 23, 2019 @ 20:00 UTC

Wind
  • 020° at 5 KTS
Conditions
No significant weather
Cloud Levels
  • No significant clouds